createdAt,value
2018-01-02T00:00:30.326Z,10.33
2018-01-02T00:03:04.790Z,9.87
2018-01-02T00:05:38.192Z,13.87
2018-01-02T00:08:12.176Z,11.80
2018-01-02T00:10:43.436Z,10.33
2018-01-02T00:13:14.520Z,13.70
2018-01-02T00:15:47.572Z,15.30
2018-01-02T00:18:20.773Z,10.87
2018-01-02T00:20:55.040Z,9.97
2018-01-02T00:23:27.935Z,12.27
2018-01-02T00:26:02.004Z,13.23
2018-01-02T00:28:35.000Z,13.93
2018-01-02T00:31:09.891Z,11.47
2018-01-02T00:33:42.828Z,13.03
2018-01-02T00:36:14.919Z,11.73
2018-01-02T00:38:45.844Z,13.57
2018-01-02T00:41:21.450Z,12.27
2018-01-02T00:43:52.929Z,12.47
2018-01-02T00:46:24.256Z,8.27
2018-01-02T00:48:57.205Z,11.97
2018-01-02T00:51:28.327Z,13.40
2018-01-02T00:54:06.279Z,14.87
2018-01-02T00:56:40.088Z,20.23
2018-01-02T00:59:14.485Z,12.03
2018-01-02T01:01:45.395Z,15.53
2018-01-02T01:04:17.380Z,12.37
2018-01-02T01:06:52.505Z,12.07
2018-01-02T01:09:25.382Z,13.83
2018-01-02T01:11:57.887Z,16.33
2018-01-02T01:14:30.115Z,12.50
2018-01-02T01:17:02.964Z,13.70
2018-01-02T01:19:35.768Z,14.70
2018-01-02T01:22:08.244Z,13.37
2018-01-02T01:24:41.199Z,10.27
2018-01-02T01:27:13.249Z,12.03
2018-01-02T01:29:45.543Z,14.60
2018-01-02T01:32:18.227Z,13.63
2018-01-02T01:34:50.580Z,14.27
2018-01-02T01:37:25.195Z,12.40
2018-01-02T01:39:56.880Z,12.70
2018-01-02T01:42:27.858Z,16.30
2018-01-02T01:45:00.727Z,16.03
2018-01-02T01:47:32.939Z,17.73
2018-01-02T01:50:04.424Z,15.40
2018-01-02T01:52:35.370Z,13.40
2018-01-02T01:55:06.288Z,17.10
2018-01-02T01:57:40.506Z,15.60
2018-01-02T02:00:12.211Z,15.53
2018-01-02T02:02:47.352Z,14.13
2018-01-02T02:05:20.109Z,20.67
2018-01-02T02:07:50.838Z,15.40
2018-01-02T02:10:22.511Z,16.03
2018-01-02T02:12:54.594Z,17.13
2018-01-02T02:15:28.016Z,21.67
2018-01-02T02:17:59.753Z,17.30
2018-01-02T02:20:31.694Z,18.67
2018-01-02T02:23:05.527Z,14.53
2018-01-02T02:25:45.244Z,17.27
2018-01-02T02:28:17.659Z,15.83
2018-01-02T02:30:53.527Z,20.43
2018-01-02T02:33:25.084Z,19.83
2018-01-02T02:35:59.955Z,16.50
2018-01-02T02:38:33.468Z,17.83
2018-01-02T02:41:08.680Z,23.47
2018-01-02T02:43:41.617Z,18.93
2018-01-02T02:46:19.740Z,24.80
2018-01-02T02:48:53.323Z,18.40
2018-01-02T02:51:24.877Z,15.80
2018-01-02T02:53:57.439Z,17.53
2018-01-02T02:56:29.954Z,22.30
2018-01-02T02:59:02.239Z,17.93
2018-01-02T03:01:33.841Z,22.40
2018-01-02T03:04:05.690Z,17.70
2018-01-02T03:06:39.925Z,24.37
2018-01-02T03:09:12.056Z,18.97
2018-01-02T03:11:43.595Z,19.40
2018-01-02T03:14:18.374Z,18.03
2018-01-02T03:16:49.917Z,25.27
2018-01-02T03:19:22.502Z,16.67
2018-01-02T03:21:53.678Z,29.63
2018-01-02T03:24:25.148Z,18.97
2018-01-02T03:27:03.008Z,22.43
2018-01-02T03:29:35.799Z,19.97
2018-01-02T03:32:07.002Z,21.23
2018-01-02T03:34:38.256Z,21.23
2018-01-02T03:37:09.698Z,23.30
2018-01-02T03:39:41.224Z,20.67
2018-01-02T03:42:14.752Z,24.00
2018-01-02T03:44:46.056Z,22.70
2018-01-02T03:47:18.988Z,26.43
2018-01-02T03:49:50.307Z,18.50
2018-01-02T03:52:21.602Z,18.57
2018-01-02T03:54:53.177Z,22.93
2018-01-02T03:57:25.401Z,22.97
2018-01-02T03:59:58.383Z,24.43
2018-01-02T04:02:29.107Z,20.60
2018-01-02T04:05:00.952Z,26.83
2018-01-02T04:07:32.959Z,21.13
2018-01-02T04:10:03.706Z,25.60
2018-01-02T04:12:34.544Z,26.20
2018-01-02T04:15:08.139Z,31.53
2018-01-02T04:17:42.291Z,30.80
2018-01-02T04:20:16.538Z,26.30
2018-01-02T04:22:49.668Z,27.57
2018-01-02T04:25:24.571Z,31.40
2018-01-02T04:27:58.297Z,24.77
2018-01-02T04:30:30.392Z,30.80
2018-01-02T04:33:02.967Z,26.60
2018-01-02T04:35:36.795Z,30.20
2018-01-02T04:38:09.631Z,25.23
2018-01-02T04:40:57.259Z,22.97
2018-01-02T04:43:30.354Z,26.77
2018-01-02T04:46:04.576Z,29.90
2018-01-02T04:48:36.841Z,29.50
2018-01-02T04:51:08.791Z,32.50
2018-01-02T04:53:42.704Z,33.70
2018-01-02T04:56:13.367Z,36.50
2018-01-02T04:58:45.918Z,33.73
2018-01-02T05:01:18.474Z,33.00
2018-01-02T05:03:50.114Z,38.43
2018-01-02T05:06:23.080Z,31.47
2018-01-02T05:08:55.191Z,30.00
2018-01-02T05:11:25.988Z,34.67
2018-01-02T05:13:59.985Z,35.80
2018-01-02T05:16:33.183Z,42.53
2018-01-02T05:21:43.811Z,38.07
2018-01-02T05:24:21.249Z,40.33
2018-01-02T05:26:57.466Z,46.07
2018-01-02T05:29:30.728Z,50.53
2018-01-02T05:32:02.196Z,49.50
2018-01-02T05:34:36.307Z,47.13
2018-01-02T05:37:08.136Z,46.43
2018-01-02T05:39:39.848Z,54.57
2018-01-02T05:42:13.807Z,46.70
2018-01-02T05:44:46.460Z,55.77
2018-01-02T05:49:58.782Z,51.80
2018-01-02T05:52:30.219Z,56.87
2018-01-02T05:55:05.507Z,54.53
2018-01-02T05:57:40.019Z,43.53
2018-01-02T06:00:16.940Z,50.63
2018-01-02T06:02:48.895Z,62.07
2018-01-02T06:05:20.655Z,56.17
2018-01-02T06:07:52.881Z,57.70
2018-01-02T06:10:23.647Z,61.07
2018-01-02T06:13:02.971Z,59.33
2018-01-02T06:15:35.376Z,49.53
2018-01-02T06:18:08.231Z,57.93
2018-01-02T06:20:39.795Z,69.63
2018-01-02T06:23:13.747Z,60.03
2018-01-02T06:25:46.952Z,61.10
2018-01-02T06:28:20.159Z,59.63
2018-01-02T06:30:53.079Z,69.40
2018-01-02T06:33:24.083Z,55.40
2018-01-02T06:35:57.991Z,58.40
2018-01-02T06:38:36.154Z,58.50
2018-01-02T06:41:06.871Z,59.90
2018-01-02T06:43:39.909Z,54.20
2018-01-02T06:46:13.320Z,68.43
2018-01-02T06:48:47.919Z,62.00
2018-01-02T06:51:19.389Z,56.70
2018-01-02T06:54:02.853Z,50.00
2018-01-02T06:56:36.401Z,49.97
2018-01-02T06:59:08.140Z,59.10
2018-01-02T07:01:39.175Z,59.93
2018-01-02T07:04:10.235Z,58.20
2018-01-02T07:06:41.774Z,62.83
2018-01-02T07:09:15.746Z,55.03
2018-01-02T07:11:48.967Z,66.87
2018-01-02T07:14:22.925Z,63.03
2018-01-02T07:16:59.873Z,75.40
2018-01-02T07:19:32.275Z,66.83
2018-01-02T07:22:03.778Z,72.33
2018-01-02T07:24:36.407Z,72.77
2018-01-02T07:27:09.360Z,67.50
2018-01-02T07:29:42.054Z,65.50
2018-01-02T07:32:15.581Z,57.07
2018-01-02T07:34:49.136Z,75.90
2018-01-02T07:37:20.830Z,76.17
2018-01-02T07:39:53.118Z,62.67
2018-01-02T07:42:24.991Z,67.50
2018-01-02T07:44:55.726Z,67.07
2018-01-02T07:47:26.368Z,75.00
2018-01-02T07:50:00.157Z,66.60
2018-01-02T07:52:31.187Z,69.97
2018-01-02T07:55:01.867Z,74.30
2018-01-02T07:57:33.282Z,73.27
2018-01-02T08:00:03.963Z,76.73
2018-01-02T08:02:40.374Z,63.90
2018-01-02T08:05:11.811Z,65.87
2018-01-02T08:07:43.004Z,71.50
2018-01-02T08:10:14.451Z,66.60
2018-01-02T08:12:45.451Z,54.03
2018-01-02T08:15:16.263Z,71.57
2018-01-02T08:17:48.500Z,69.80
2018-01-02T08:20:19.211Z,57.60
2018-01-02T08:22:50.128Z,66.53
2018-01-02T08:25:21.192Z,59.57
2018-01-02T08:27:51.832Z,56.33
2018-01-02T08:30:25.026Z,57.13
2018-01-02T08:32:57.251Z,68.67
2018-01-02T08:35:28.694Z,51.97
2018-01-02T08:38:00.934Z,65.13
2018-01-02T08:40:33.770Z,65.67
2018-01-02T08:43:05.797Z,55.87
2018-01-02T08:45:38.092Z,63.37
2018-01-02T08:48:11.543Z,56.07
2018-01-02T08:50:42.289Z,59.70
2018-01-02T08:53:13.458Z,54.97
2018-01-02T08:55:44.419Z,57.23
2018-01-02T08:58:15.884Z,55.60
2018-01-02T09:00:46.658Z,50.53
2018-01-02T09:03:19.398Z,57.30
2018-01-02T09:05:50.081Z,64.20
2018-01-02T09:08:21.299Z,46.90
2018-01-02T09:10:52.705Z,49.37
2018-01-02T09:13:27.445Z,45.50
2018-01-02T09:15:59.582Z,46.63
2018-01-02T09:18:33.357Z,39.70
2018-01-02T09:21:04.609Z,46.23
2018-01-02T09:23:35.595Z,44.23
2018-01-02T09:26:06.593Z,49.97
2018-01-02T09:28:40.364Z,40.63
2018-01-02T09:31:12.063Z,37.03
2018-01-02T09:33:43.940Z,36.70
2018-01-02T09:36:16.625Z,35.67
2018-01-02T09:38:48.735Z,40.47
2018-01-02T09:41:21.399Z,33.60
2018-01-02T09:43:53.807Z,33.10
2018-01-02T09:46:26.585Z,37.67
2018-01-02T09:48:58.001Z,35.77
2018-01-02T09:51:29.191Z,30.27
2018-01-02T09:54:03.100Z,31.53
2018-01-02T09:56:36.147Z,27.00
2018-01-02T09:59:07.324Z,28.80
2018-01-02T10:01:39.826Z,26.93
2018-01-02T10:04:11.775Z,33.40
2018-01-02T10:06:42.885Z,32.03
2018-01-02T10:09:13.915Z,31.50
2018-01-02T10:11:45.287Z,38.50
2018-01-02T10:14:15.895Z,35.33
2018-01-02T10:16:46.500Z,41.33
2018-01-02T10:19:17.459Z,37.07
2018-01-02T10:21:51.830Z,33.93
2018-01-02T10:24:26.143Z,28.90
2018-01-02T10:26:58.727Z,30.57
2018-01-02T10:29:34.015Z,20.57
2018-01-02T10:32:05.643Z,27.37
2018-01-02T10:34:39.553Z,31.57
2018-01-02T10:37:11.657Z,25.43
2018-01-02T10:39:45.362Z,29.33
2018-01-02T10:42:17.403Z,22.67
2018-01-02T10:44:51.498Z,24.67
2018-01-02T10:47:22.198Z,28.07
2018-01-02T10:52:32.715Z,26.53
2018-01-02T10:55:04.872Z,24.17
2018-01-02T10:57:36.073Z,26.30
2018-01-02T11:00:07.243Z,24.90
2018-01-02T11:02:39.042Z,20.83
2018-01-02T11:05:09.802Z,22.13
2018-01-02T11:07:42.611Z,23.20
2018-01-02T11:10:16.372Z,26.40
2018-01-02T11:12:51.164Z,24.67
2018-01-02T11:15:23.009Z,25.77
2018-01-02T11:17:53.636Z,26.23
2018-01-02T11:20:25.486Z,22.50
2018-01-02T11:22:56.546Z,21.50
2018-01-02T11:25:31.042Z,26.13
2018-01-02T11:28:01.924Z,19.87
2018-01-02T11:30:32.557Z,19.50
2018-01-02T11:33:03.228Z,20.83
2018-01-02T11:35:35.169Z,27.57
2018-01-02T11:38:09.016Z,21.17
2018-01-02T11:40:42.688Z,17.53
2018-01-02T11:43:13.609Z,19.97
2018-01-02T11:45:47.625Z,19.50
2018-01-02T11:48:21.539Z,22.57
2018-01-02T11:50:53.284Z,16.70
2018-01-02T11:53:24.827Z,18.27
2018-01-02T11:55:55.881Z,15.17
2018-01-02T11:58:26.599Z,11.60
2018-01-02T12:00:58.909Z,13.10
2018-01-02T12:03:30.946Z,11.17
2018-01-02T12:06:02.042Z,13.30
2018-01-02T12:08:33.433Z,16.17
2018-01-02T12:11:04.555Z,10.30
2018-01-02T12:13:35.301Z,11.23
2018-01-02T12:16:05.972Z,14.00
2018-01-02T12:18:36.597Z,13.43
2018-01-02T12:21:07.495Z,12.53
2018-01-02T12:23:39.174Z,10.00
2018-01-02T12:26:11.371Z,9.90
2018-01-02T12:28:47.094Z,9.93
2018-01-02T12:31:20.803Z,10.87
2018-01-02T12:33:52.669Z,14.70
2018-01-02T12:36:25.219Z,11.27
2018-01-02T12:38:57.415Z,10.27
2018-01-02T12:41:28.446Z,8.50
2018-01-02T12:44:00.248Z,17.10
2018-01-02T12:46:31.970Z,14.83
2018-01-02T12:49:06.216Z,14.80
2018-01-02T12:51:37.743Z,11.50
2018-01-02T12:54:08.424Z,9.87
2018-01-02T12:56:39.172Z,10.33
2018-01-02T12:59:12.015Z,16.03
2018-01-02T13:01:43.577Z,14.50
2018-01-02T13:04:18.819Z,20.10
2018-01-02T13:06:51.224Z,12.57
2018-01-02T13:09:26.648Z,12.97
2018-01-02T13:11:58.024Z,16.37
2018-01-02T13:14:29.772Z,12.73
2018-01-02T13:17:01.211Z,11.87
2018-01-02T13:19:31.955Z,14.67
2018-01-02T13:22:02.757Z,18.73
2018-01-02T13:24:33.717Z,13.03
2018-01-02T13:27:05.138Z,12.43
2018-01-02T13:29:36.371Z,14.90
2018-01-02T13:32:07.795Z,13.00
2018-01-02T13:34:39.221Z,14.87
2018-01-02T13:37:10.818Z,11.93
2018-01-02T13:39:42.716Z,15.87
2018-01-02T13:42:17.316Z,10.30
2018-01-02T13:44:49.764Z,14.23
2018-01-02T13:47:21.081Z,14.27
2018-01-02T13:49:53.968Z,11.03
2018-01-02T13:52:29.962Z,11.57
2018-01-02T13:55:04.021Z,12.70
2018-01-02T13:57:36.451Z,13.27
2018-01-02T14:00:07.771Z,11.13
2018-01-02T14:02:38.720Z,12.10
2018-01-02T14:05:10.452Z,15.30
2018-01-02T14:07:41.402Z,16.87
2018-01-02T14:10:32.616Z,13.57
2018-01-02T14:13:18.648Z,17.07
2018-01-02T14:15:55.484Z,10.57
2018-01-02T14:18:26.860Z,15.10
2018-01-02T14:20:58.831Z,12.70
2018-01-02T14:23:29.567Z,20.27
2018-01-02T14:26:00.704Z,17.27
2018-01-02T14:28:39.737Z,12.50
2018-01-02T14:33:53.091Z,18.43
2018-01-02T14:36:26.954Z,15.10
2018-01-02T14:39:01.236Z,11.73
2018-01-02T14:41:35.280Z,14.97
2018-01-02T14:44:08.725Z,10.10
2018-01-02T14:46:49.101Z,15.23
2018-01-02T14:49:22.655Z,11.07
2018-01-02T14:51:55.842Z,11.60
2018-01-02T14:54:30.858Z,13.27
2018-01-02T14:57:01.884Z,17.13
2018-01-02T14:59:36.699Z,16.03
2018-01-02T15:02:11.533Z,22.47
2018-01-02T15:04:46.700Z,15.47
2018-01-02T15:07:19.682Z,13.90
2018-01-02T15:10:30.344Z,12.87
2018-01-02T15:13:06.042Z,13.17
2018-01-02T15:15:46.965Z,13.50
2018-01-02T15:18:20.826Z,15.87
2018-01-02T15:20:53.359Z,11.70
2018-01-02T15:23:24.141Z,12.37
2018-01-02T15:25:55.077Z,19.93
2018-01-02T15:28:27.333Z,16.43
2018-01-02T15:30:59.388Z,15.30
2018-01-02T15:33:32.382Z,15.50
2018-01-02T15:36:04.446Z,13.03
2018-01-02T15:38:38.149Z,15.93
2018-01-02T15:41:12.488Z,14.87
2018-01-02T15:43:45.783Z,13.87
2018-01-02T15:46:17.238Z,14.30
2018-01-02T15:48:50.432Z,13.03
2018-01-02T15:51:22.604Z,10.67
2018-01-02T15:53:56.176Z,9.70
2018-01-02T15:56:32.590Z,9.60
2018-01-02T15:59:04.831Z,12.57
2018-01-02T16:01:39.511Z,10.97
2018-01-02T16:04:13.430Z,13.47
2018-01-02T16:06:46.542Z,12.00
2018-01-02T16:09:20.132Z,17.80
2018-01-02T16:11:55.278Z,17.37
2018-01-02T16:14:29.987Z,15.47
2018-01-02T16:17:02.412Z,9.77
2018-01-02T16:19:35.701Z,12.63
2018-01-02T16:22:07.728Z,14.90
2018-01-02T16:24:39.850Z,14.23
2018-01-02T16:27:11.127Z,11.80
2018-01-02T16:29:42.184Z,11.13
2018-01-02T16:32:13.236Z,21.90
2018-01-02T16:34:44.186Z,18.37
2018-01-02T16:37:15.174Z,12.70
2018-01-02T16:39:48.752Z,9.77
2018-01-02T16:42:19.857Z,14.40
2018-01-02T16:44:54.521Z,11.37
2018-01-02T16:47:27.856Z,11.87
2018-01-02T16:50:01.026Z,11.73
2018-01-02T16:52:33.053Z,11.80
2018-01-02T16:55:07.432Z,12.00
2018-01-02T16:57:41.621Z,13.50
2018-01-02T17:00:14.638Z,12.10
2018-01-02T17:02:47.449Z,7.83
2018-01-02T17:05:20.465Z,10.00
2018-01-02T17:07:52.817Z,7.17
2018-01-02T17:10:27.459Z,8.87
2018-01-02T17:13:02.665Z,11.53
2018-01-02T17:15:41.939Z,11.57
2018-01-02T17:18:14.450Z,12.77
2018-01-02T17:20:50.748Z,13.23
2018-01-02T17:23:23.138Z,12.07
2018-01-02T17:25:57.909Z,10.20
2018-01-02T17:28:30.801Z,11.03
2018-01-02T17:31:02.111Z,12.47
2018-01-02T17:33:34.382Z,17.20
2018-01-02T17:36:06.672Z,13.17
2018-01-02T17:38:41.556Z,10.47
2018-01-02T17:41:14.192Z,13.20
2018-01-02T17:43:47.097Z,15.37
2018-01-02T17:46:23.355Z,10.90
2018-01-02T17:48:57.439Z,17.57
2018-01-02T17:51:28.523Z,15.17
2018-01-02T17:54:08.130Z,16.17
2018-01-02T17:56:39.812Z,13.30
2018-01-02T17:59:16.772Z,13.27
2018-01-02T18:01:55.408Z,14.13
2018-01-02T18:04:34.993Z,10.57
2018-01-02T18:07:10.264Z,14.70
2018-01-02T18:09:44.343Z,15.63
2018-01-02T18:12:19.288Z,12.77
2018-01-02T18:14:58.586Z,17.87
2018-01-02T18:17:37.140Z,15.47
2018-01-02T18:20:19.706Z,17.47
2018-01-02T18:22:57.044Z,18.63
2018-01-02T18:25:31.357Z,17.93
2018-01-02T18:28:06.489Z,16.63
2018-01-02T18:30:41.312Z,18.67
2018-01-02T18:33:13.583Z,18.90
2018-01-02T18:35:46.765Z,15.53
2018-01-02T18:38:18.521Z,14.23
2018-01-02T18:40:51.037Z,14.83
2018-01-02T18:43:26.789Z,16.93
2018-01-02T18:46:04.755Z,18.57
2018-01-02T18:48:39.974Z,15.90
2018-01-02T18:51:13.246Z,16.83
2018-01-02T18:53:47.160Z,17.30
2018-01-02T18:56:19.575Z,18.50
2018-01-02T18:58:51.515Z,17.07
2018-01-02T19:01:29.248Z,17.67
2018-01-02T19:04:13.240Z,22.20
2018-01-02T19:06:47.440Z,19.87
2018-01-02T19:09:21.917Z,20.67
2018-01-02T19:11:55.627Z,24.80
2018-01-02T19:14:32.042Z,21.43
2018-01-02T19:17:05.591Z,19.73
2018-01-02T19:19:42.475Z,27.23
2018-01-02T19:22:18.667Z,20.47
2018-01-02T19:24:55.201Z,20.50
2018-01-02T19:27:30.560Z,23.33
2018-01-02T19:30:03.993Z,22.97
2018-01-02T19:32:38.481Z,25.33
2018-01-02T19:35:11.740Z,25.97
2018-01-02T19:37:43.461Z,29.80
2018-01-02T19:40:17.764Z,28.67
2018-01-02T19:42:51.616Z,25.60
2018-01-02T19:45:24.287Z,22.20
2018-01-02T19:48:02.834Z,25.27
2018-01-02T19:50:34.540Z,25.60
2018-01-02T19:53:07.573Z,21.77
2018-01-02T19:55:45.325Z,21.30
2018-01-02T19:58:19.227Z,24.97
2018-01-02T20:00:53.725Z,28.30
2018-01-02T20:03:26.958Z,26.13
2018-01-02T20:05:58.714Z,27.13
2018-01-02T20:08:32.826Z,26.67
2018-01-02T20:11:19.268Z,29.27
2018-01-02T20:13:55.384Z,23.37
2018-01-02T20:16:31.166Z,26.67
2018-01-02T20:19:06.235Z,28.43
2018-01-02T20:21:39.300Z,25.57
2018-01-02T20:24:13.211Z,30.73
2018-01-02T20:26:46.940Z,24.70
2018-01-02T20:29:20.592Z,26.13
2018-01-02T20:31:53.702Z,29.60
2018-01-02T20:34:29.223Z,28.33
2018-01-02T20:37:02.282Z,29.43
2018-01-02T20:39:34.739Z,41.53
2018-01-02T20:42:06.066Z,32.83
2018-01-02T20:44:38.467Z,28.77
2018-01-02T20:47:10.152Z,36.00
2018-01-02T20:49:43.208Z,26.90
2018-01-02T20:52:16.829Z,30.57
2018-01-02T20:54:48.226Z,32.77
2018-01-02T20:57:20.473Z,29.03
2018-01-02T20:59:52.093Z,30.70
2018-01-02T21:02:25.395Z,35.37
2018-01-02T21:05:00.472Z,32.70
2018-01-02T21:07:32.445Z,35.27
2018-01-02T21:10:05.186Z,33.97
2018-01-02T21:12:38.967Z,33.47
2018-01-02T21:15:11.183Z,32.43
2018-01-02T21:17:42.846Z,34.87
2018-01-02T21:20:14.305Z,35.33
2018-01-02T21:22:47.192Z,31.53
2018-01-02T21:25:19.316Z,28.43
2018-01-02T21:27:50.723Z,33.43
2018-01-02T21:30:22.420Z,30.73
2018-01-02T21:32:53.994Z,30.30
2018-01-02T21:35:26.281Z,32.33
2018-01-02T21:37:57.455Z,26.13
2018-01-02T21:40:29.928Z,30.53
2018-01-02T21:43:01.992Z,27.23
2018-01-02T21:45:33.414Z,30.37
2018-01-02T21:48:05.806Z,30.40
2018-01-02T21:50:37.261Z,27.03
2018-01-02T21:53:08.328Z,27.67
2018-01-02T21:55:41.918Z,31.07
2018-01-02T21:58:14.286Z,27.20
2018-01-02T22:00:46.640Z,29.13
2018-01-02T22:03:17.961Z,28.33
2018-01-02T22:05:49.967Z,27.20
2018-01-02T22:08:21.940Z,25.80
2018-01-02T22:10:55.994Z,27.27
2018-01-02T22:13:29.206Z,24.43
2018-01-02T22:16:01.607Z,30.37
2018-01-02T22:18:33.616Z,24.03
2018-01-02T22:21:07.927Z,22.63
2018-01-02T22:23:39.379Z,27.60
2018-01-02T22:26:11.023Z,26.80
2018-01-02T22:28:42.103Z,22.87
2018-01-02T22:31:13.756Z,22.43
2018-01-02T22:33:47.774Z,23.53
2018-01-02T22:36:20.886Z,25.13
2018-01-02T22:38:53.468Z,18.33
2018-01-02T22:41:24.633Z,21.73
2018-01-02T22:43:56.457Z,20.73
2018-01-02T22:46:27.887Z,17.20
2018-01-02T22:48:59.821Z,20.80
2018-01-02T22:51:30.814Z,20.53
2018-01-02T22:54:02.628Z,20.47
2018-01-02T22:56:34.303Z,20.17
2018-01-02T22:59:07.891Z,17.17
2018-01-02T23:01:40.792Z,26.87
2018-01-02T23:04:13.501Z,18.27
2018-01-02T23:06:47.298Z,20.00
2018-01-02T23:09:19.139Z,23.50
2018-01-02T23:11:51.257Z,19.83
2018-01-02T23:18:29.129Z,21.23
2018-01-02T23:20:59.991Z,19.40
2018-01-02T23:23:31.763Z,18.73
2018-01-02T23:26:03.146Z,18.40
2018-01-02T23:28:34.455Z,20.97
2018-01-02T23:31:10.115Z,16.57
2018-01-02T23:33:43.332Z,20.43
2018-01-02T23:36:14.897Z,19.63
2018-01-02T23:38:46.630Z,15.83
2018-01-02T23:41:17.651Z,25.97
2018-01-02T23:43:49.489Z,18.83
2018-01-02T23:46:21.010Z,18.33
2018-01-02T23:48:52.003Z,21.50
2018-01-02T23:51:23.173Z,21.20
2018-01-02T23:53:55.864Z,19.57
2018-01-02T23:56:27.363Z,19.67
2018-01-02T23:58:59.141Z,21.07
